sensor_id;sensor_type;location;lat;lon;timestamp;P1;durP1;ratioP1;P2;durP2;ratioP2
20627;SDS011;10473;42.734;24.258;2022-12-29T00:02:04;30.20;;;12.80;;
20627;SDS011;10473;42.734;24.258;2022-12-29T00:04:34;23.07;;;13.60;;
20627;SDS011;10473;42.734;24.258;2022-12-29T00:07:01;15.23;;;9.13;;
20627;SDS011;10473;42.734;24.258;2022-12-29T00:09:30;13.83;;;6.40;;
20627;SDS011;10473;42.734;24.258;2022-12-29T00:11:58;16.23;;;9.43;;
20627;SDS011;10473;42.734;24.258;2022-12-29T00:14:27;18.73;;;10.77;;
20627;SDS011;10473;42.734;24.258;2022-12-29T00:17:12;14.37;;;7.20;;
20627;SDS011;10473;42.734;24.258;2022-12-29T00:19:42;8.90;;;6.33;;
20627;SDS011;10473;42.734;24.258;2022-12-29T00:22:27;9.20;;;6.80;;
20627;SDS011;10473;42.734;24.258;2022-12-29T00:25:12;8.40;;;6.27;;
20627;SDS011;10473;42.734;24.258;2022-12-29T00:27:58;9.23;;;6.10;;
20627;SDS011;10473;42.734;24.258;2022-12-29T00:30:43;10.43;;;6.10;;
20627;SDS011;10473;42.734;24.258;2022-12-29T00:33:29;7.43;;;5.30;;
20627;SDS011;10473;42.734;24.258;2022-12-29T00:36:19;11.43;;;7.23;;
20627;SDS011;10473;42.734;24.258;2022-12-29T00:38:50;10.10;;;6.97;;
20627;SDS011;10473;42.734;24.258;2022-12-29T00:41:37;7.20;;;4.57;;
20627;SDS011;10473;42.734;24.258;2022-12-29T00:44:22;7.57;;;4.27;;
20627;SDS011;10473;42.734;24.258;2022-12-29T00:46:51;7.57;;;5.37;;
20627;SDS011;10473;42.734;24.258;2022-12-29T00:49:18;7.10;;;6.03;;
20627;SDS011;10473;42.734;24.258;2022-12-29T00:51:59;8.57;;;6.27;;
20627;SDS011;10473;42.734;24.258;2022-12-29T00:54:29;6.30;;;4.53;;
20627;SDS011;10473;42.734;24.258;2022-12-29T00:56:59;5.47;;;3.13;;
20627;SDS011;10473;42.734;24.258;2022-12-29T00:59:27;3.23;;;2.33;;
20627;SDS011;10473;42.734;24.258;2022-12-29T01:01:56;3.60;;;2.57;;
20627;SDS011;10473;42.734;24.258;2022-12-29T01:04:25;4.30;;;3.70;;
20627;SDS011;10473;42.734;24.258;2022-12-29T01:06:53;4.17;;;3.43;;
20627;SDS011;10473;42.734;24.258;2022-12-29T01:09:22;4.00;;;2.93;;
20627;SDS011;10473;42.734;24.258;2022-12-29T01:12:09;2.70;;;2.50;;
20627;SDS011;10473;42.734;24.258;2022-12-29T01:14:37;3.43;;;2.73;;
20627;SDS011;10473;42.734;24.258;2022-12-29T01:17:05;4.33;;;3.20;;
20627;SDS011;10473;42.734;24.258;2022-12-29T01:19:33;7.23;;;2.80;;
20627;SDS011;10473;42.734;24.258;2022-12-29T01:22:01;3.33;;;2.33;;
20627;SDS011;10473;42.734;24.258;2022-12-29T01:24:30;5.30;;;2.60;;
20627;SDS011;10473;42.734;24.258;2022-12-29T01:26:58;3.87;;;2.63;;
20627;SDS011;10473;42.734;24.258;2022-12-29T01:29:25;3.07;;;1.93;;
20627;SDS011;10473;42.734;24.258;2022-12-29T01:31:53;2.50;;;1.87;;
20627;SDS011;10473;42.734;24.258;2022-12-29T01:34:22;3.40;;;1.87;;
20627;SDS011;10473;42.734;24.258;2022-12-29T01:36:49;2.03;;;1.83;;
20627;SDS011;10473;42.734;24.258;2022-12-29T01:39:17;3.07;;;1.80;;
20627;SDS011;10473;42.734;24.258;2022-12-29T01:41:46;3.00;;;2.33;;
20627;SDS011;10473;42.734;24.258;2022-12-29T01:47:20;5.10;;;3.23;;
20627;SDS011;10473;42.734;24.258;2022-12-29T01:49:53;2.57;;;2.37;;
20627;SDS011;10473;42.734;24.258;2022-12-29T01:52:24;3.00;;;2.17;;
20627;SDS011;10473;42.734;24.258;2022-12-29T01:54:56;3.83;;;2.87;;
20627;SDS011;10473;42.734;24.258;2022-12-29T01:57:27;4.33;;;2.93;;
20627;SDS011;10473;42.734;24.258;2022-12-29T02:00:00;3.47;;;2.07;;
20627;SDS011;10473;42.734;24.258;2022-12-29T02:02:38;4.37;;;2.30;;
20627;SDS011;10473;42.734;24.258;2022-12-29T02:05:10;3.20;;;2.13;;
20627;SDS011;10473;42.734;24.258;2022-12-29T02:07:41;2.80;;;2.03;;
20627;SDS011;10473;42.734;24.258;2022-12-29T02:10:10;3.17;;;2.87;;
20627;SDS011;10473;42.734;24.258;2022-12-29T02:12:44;2.73;;;2.30;;
20627;SDS011;10473;42.734;24.258;2022-12-29T02:15:13;3.63;;;2.70;;
20627;SDS011;10473;42.734;24.258;2022-12-29T02:17:47;6.10;;;3.40;;
20627;SDS011;10473;42.734;24.258;2022-12-29T02:20:37;4.57;;;3.03;;
20627;SDS011;10473;42.734;24.258;2022-12-29T02:23:29;3.97;;;3.03;;
20627;SDS011;10473;42.734;24.258;2022-12-29T02:26:12;2.30;;;2.10;;
20627;SDS011;10473;42.734;24.258;2022-12-29T02:28:57;4.37;;;3.17;;
20627;SDS011;10473;42.734;24.258;2022-12-29T02:31:43;4.17;;;2.40;;
20627;SDS011;10473;42.734;24.258;2022-12-29T02:34:18;4.60;;;2.63;;
20627;SDS011;10473;42.734;24.258;2022-12-29T02:36:55;5.97;;;2.50;;
20627;SDS011;10473;42.734;24.258;2022-12-29T02:39:32;4.43;;;3.77;;
20627;SDS011;10473;42.734;24.258;2022-12-29T02:42:09;5.67;;;3.83;;
20627;SDS011;10473;42.734;24.258;2022-12-29T02:44:46;4.77;;;3.97;;
20627;SDS011;10473;42.734;24.258;2022-12-29T02:47:26;4.43;;;3.10;;
20627;SDS011;10473;42.734;24.258;2022-12-29T02:50:05;5.27;;;3.03;;
20627;SDS011;10473;42.734;24.258;2022-12-29T02:52:36;4.33;;;3.63;;
20627;SDS011;10473;42.734;24.258;2022-12-29T02:55:06;5.80;;;4.80;;
20627;SDS011;10473;42.734;24.258;2022-12-29T02:57:36;5.47;;;4.33;;
20627;SDS011;10473;42.734;24.258;2022-12-29T03:00:05;5.60;;;3.77;;
20627;SDS011;10473;42.734;24.258;2022-12-29T03:05:53;5.30;;;3.33;;
20627;SDS011;10473;42.734;24.258;2022-12-29T03:08:35;4.00;;;3.33;;
20627;SDS011;10473;42.734;24.258;2022-12-29T03:11:13;4.57;;;3.13;;
20627;SDS011;10473;42.734;24.258;2022-12-29T03:13:56;5.83;;;3.50;;
20627;SDS011;10473;42.734;24.258;2022-12-29T03:16:49;5.20;;;3.10;;
20627;SDS011;10473;42.734;24.258;2022-12-29T03:19:25;3.60;;;2.80;;
20627;SDS011;10473;42.734;24.258;2022-12-29T03:21:59;7.83;;;4.00;;
20627;SDS011;10473;42.734;24.258;2022-12-29T03:24:55;5.97;;;4.40;;
20627;SDS011;10473;42.734;24.258;2022-12-29T03:27:27;8.70;;;4.90;;
20627;SDS011;10473;42.734;24.258;2022-12-29T03:29:59;8.90;;;5.27;;
20627;SDS011;10473;42.734;24.258;2022-12-29T03:32:31;13.43;;;7.57;;
20627;SDS011;10473;42.734;24.258;2022-12-29T03:35:04;15.43;;;7.60;;
20627;SDS011;10473;42.734;24.258;2022-12-29T03:37:36;11.63;;;7.63;;
20627;SDS011;10473;42.734;24.258;2022-12-29T03:40:08;11.23;;;6.60;;
20627;SDS011;10473;42.734;24.258;2022-12-29T03:42:37;9.37;;;5.87;;
20627;SDS011;10473;42.734;24.258;2022-12-29T03:45:07;5.67;;;3.80;;
20627;SDS011;10473;42.734;24.258;2022-12-29T03:47:37;6.17;;;4.53;;
20627;SDS011;10473;42.734;24.258;2022-12-29T03:50:07;3.60;;;3.10;;
20627;SDS011;10473;42.734;24.258;2022-12-29T03:52:39;4.33;;;2.77;;
20627;SDS011;10473;42.734;24.258;2022-12-29T03:55:07;4.17;;;2.17;;
20627;SDS011;10473;42.734;24.258;2022-12-29T03:57:37;3.93;;;2.87;;
20627;SDS011;10473;42.734;24.258;2022-12-29T04:00:07;2.57;;;1.90;;
20627;SDS011;10473;42.734;24.258;2022-12-29T04:02:45;4.17;;;2.23;;
20627;SDS011;10473;42.734;24.258;2022-12-29T04:05:19;4.23;;;2.77;;
20627;SDS011;10473;42.734;24.258;2022-12-29T04:07:49;3.57;;;2.83;;
20627;SDS011;10473;42.734;24.258;2022-12-29T04:10:17;3.03;;;2.47;;
20627;SDS011;10473;42.734;24.258;2022-12-29T04:12:46;2.47;;;2.13;;
20627;SDS011;10473;42.734;24.258;2022-12-29T04:15:15;3.67;;;3.03;;
20627;SDS011;10473;42.734;24.258;2022-12-29T04:17:43;3.63;;;2.13;;
20627;SDS011;10473;42.734;24.258;2022-12-29T04:20:11;3.93;;;2.97;;
20627;SDS011;10473;42.734;24.258;2022-12-29T04:23:00;9.80;;;5.60;;
20627;SDS011;10473;42.734;24.258;2022-12-29T04:25:30;11.90;;;6.13;;
20627;SDS011;10473;42.734;24.258;2022-12-29T04:27:58;8.87;;;5.43;;
20627;SDS011;10473;42.734;24.258;2022-12-29T04:30:48;6.90;;;3.80;;
20627;SDS011;10473;42.734;24.258;2022-12-29T04:33:30;2.83;;;2.30;;
20627;SDS011;10473;42.734;24.258;2022-12-29T04:35:58;3.87;;;1.50;;
20627;SDS011;10473;42.734;24.258;2022-12-29T04:38:27;4.30;;;1.53;;
20627;SDS011;10473;42.734;24.258;2022-12-29T04:40:55;1.53;;;1.20;;
20627;SDS011;10473;42.734;24.258;2022-12-29T04:43:23;5.50;;;2.57;;
20627;SDS011;10473;42.734;24.258;2022-12-29T04:46:20;5.40;;;3.70;;
20627;SDS011;10473;42.734;24.258;2022-12-29T04:49:08;3.10;;;2.17;;
20627;SDS011;10473;42.734;24.258;2022-12-29T04:51:47;2.57;;;2.30;;
20627;SDS011;10473;42.734;24.258;2022-12-29T04:54:18;4.03;;;3.40;;
20627;SDS011;10473;42.734;24.258;2022-12-29T04:56:53;2.63;;;2.43;;
20627;SDS011;10473;42.734;24.258;2022-12-29T04:59:20;4.90;;;3.20;;
20627;SDS011;10473;42.734;24.258;2022-12-29T05:01:51;5.20;;;2.90;;
20627;SDS011;10473;42.734;24.258;2022-12-29T05:04:19;3.90;;;2.57;;
20627;SDS011;10473;42.734;24.258;2022-12-29T05:06:47;2.33;;;2.00;;
20627;SDS011;10473;42.734;24.258;2022-12-29T05:09:18;3.83;;;2.33;;
20627;SDS011;10473;42.734;24.258;2022-12-29T05:11:45;4.13;;;3.30;;
20627;SDS011;10473;42.734;24.258;2022-12-29T05:14:13;6.90;;;3.77;;
20627;SDS011;10473;42.734;24.258;2022-12-29T05:16:42;5.27;;;4.63;;
20627;SDS011;10473;42.734;24.258;2022-12-29T05:19:10;7.87;;;5.13;;
20627;SDS011;10473;42.734;24.258;2022-12-29T05:21:38;6.40;;;5.07;;
20627;SDS011;10473;42.734;24.258;2022-12-29T05:24:07;6.63;;;5.23;;
20627;SDS011;10473;42.734;24.258;2022-12-29T05:26:36;4.57;;;3.27;;
20627;SDS011;10473;42.734;24.258;2022-12-29T05:29:22;5.20;;;4.20;;
20627;SDS011;10473;42.734;24.258;2022-12-29T05:31:50;4.67;;;3.23;;
20627;SDS011;10473;42.734;24.258;2022-12-29T05:34:18;5.57;;;3.60;;
20627;SDS011;10473;42.734;24.258;2022-12-29T05:36:47;8.87;;;6.23;;
20627;SDS011;10473;42.734;24.258;2022-12-29T05:39:15;7.80;;;6.47;;
20627;SDS011;10473;42.734;24.258;2022-12-29T05:41:48;2.70;;;2.20;;
20627;SDS011;10473;42.734;24.258;2022-12-29T05:44:45;18.40;;;2.50;;
20627;SDS011;10473;42.734;24.258;2022-12-29T05:47:35;4.60;;;3.73;;
20627;SDS011;10473;42.734;24.258;2022-12-29T05:50:29;13.30;;;8.80;;
20627;SDS011;10473;42.734;24.258;2022-12-29T05:53:11;13.23;;;8.47;;
20627;SDS011;10473;42.734;24.258;2022-12-29T05:55:39;13.13;;;8.13;;
20627;SDS011;10473;42.734;24.258;2022-12-29T05:58:08;14.80;;;7.47;;
20627;SDS011;10473;42.734;24.258;2022-12-29T06:00:36;24.27;;;15.50;;
20627;SDS011;10473;42.734;24.258;2022-12-29T06:03:04;27.27;;;19.00;;
20627;SDS011;10473;42.734;24.258;2022-12-29T06:05:32;20.67;;;14.13;;
20627;SDS011;10473;42.734;24.258;2022-12-29T06:08:00;18.43;;;9.93;;
20627;SDS011;10473;42.734;24.258;2022-12-29T06:10:27;15.60;;;9.20;;
20627;SDS011;10473;42.734;24.258;2022-12-29T06:13:01;13.47;;;8.43;;
20627;SDS011;10473;42.734;24.258;2022-12-29T06:15:32;19.70;;;11.30;;
20627;SDS011;10473;42.734;24.258;2022-12-29T06:18:02;28.80;;;17.40;;
20627;SDS011;10473;42.734;24.258;2022-12-29T06:20:30;16.57;;;10.73;;
20627;SDS011;10473;42.734;24.258;2022-12-29T06:22:57;19.07;;;11.10;;
20627;SDS011;10473;42.734;24.258;2022-12-29T06:25:25;29.90;;;18.27;;
20627;SDS011;10473;42.734;24.258;2022-12-29T06:27:53;32.70;;;17.43;;
20627;SDS011;10473;42.734;24.258;2022-12-29T06:30:22;23.27;;;12.63;;
20627;SDS011;10473;42.734;24.258;2022-12-29T06:32:51;15.53;;;10.77;;
20627;SDS011;10473;42.734;24.258;2022-12-29T06:35:20;20.43;;;12.47;;
20627;SDS011;10473;42.734;24.258;2022-12-29T06:37:50;14.23;;;11.10;;
20627;SDS011;10473;42.734;24.258;2022-12-29T06:40:19;17.63;;;11.93;;
20627;SDS011;10473;42.734;24.258;2022-12-29T06:43:08;16.20;;;10.60;;
20627;SDS011;10473;42.734;24.258;2022-12-29T06:46:05;18.23;;;11.00;;
20627;SDS011;10473;42.734;24.258;2022-12-29T06:48:34;23.07;;;13.80;;
20627;SDS011;10473;42.734;24.258;2022-12-29T06:51:02;21.60;;;13.23;;
20627;SDS011;10473;42.734;24.258;2022-12-29T06:53:31;19.10;;;13.17;;
20627;SDS011;10473;42.734;24.258;2022-12-29T06:55:59;21.67;;;12.67;;
20627;SDS011;10473;42.734;24.258;2022-12-29T06:58:26;17.33;;;11.50;;
20627;SDS011;10473;42.734;24.258;2022-12-29T07:00:54;21.93;;;12.80;;
20627;SDS011;10473;42.734;24.258;2022-12-29T07:03:22;14.77;;;10.10;;
20627;SDS011;10473;42.734;24.258;2022-12-29T07:05:51;16.07;;;9.47;;
20627;SDS011;10473;42.734;24.258;2022-12-29T07:08:20;9.60;;;7.77;;
20627;SDS011;10473;42.734;24.258;2022-12-29T07:10:47;11.43;;;8.23;;
20627;SDS011;10473;42.734;24.258;2022-12-29T07:13:15;10.53;;;7.30;;
20627;SDS011;10473;42.734;24.258;2022-12-29T07:15:43;8.63;;;6.47;;
20627;SDS011;10473;42.734;24.258;2022-12-29T07:18:10;11.30;;;5.87;;
20627;SDS011;10473;42.734;24.258;2022-12-29T07:20:38;7.13;;;5.40;;
20627;SDS011;10473;42.734;24.258;2022-12-29T07:23:07;5.60;;;4.70;;
20627;SDS011;10473;42.734;24.258;2022-12-29T07:25:35;6.47;;;4.43;;
20627;SDS011;10473;42.734;24.258;2022-12-29T07:28:02;7.03;;;3.13;;
20627;SDS011;10473;42.734;24.258;2022-12-29T07:30:31;9.63;;;7.23;;
20627;SDS011;10473;42.734;24.258;2022-12-29T07:32:58;11.20;;;7.73;;
20627;SDS011;10473;42.734;24.258;2022-12-29T07:35:26;17.43;;;11.70;;
20627;SDS011;10473;42.734;24.258;2022-12-29T07:37:54;8.87;;;6.97;;
20627;SDS011;10473;42.734;24.258;2022-12-29T07:40:23;10.47;;;8.43;;
20627;SDS011;10473;42.734;24.258;2022-12-29T07:42:50;13.60;;;9.57;;
20627;SDS011;10473;42.734;24.258;2022-12-29T07:45:26;11.73;;;7.37;;
20627;SDS011;10473;42.734;24.258;2022-12-29T07:48:03;66.77;;;36.10;;
20627;SDS011;10473;42.734;24.258;2022-12-29T07:50:33;33.30;;;22.77;;
20627;SDS011;10473;42.734;24.258;2022-12-29T07:53:01;10.63;;;7.77;;
20627;SDS011;10473;42.734;24.258;2022-12-29T07:55:30;7.43;;;6.17;;
20627;SDS011;10473;42.734;24.258;2022-12-29T07:57:57;7.33;;;5.50;;
20627;SDS011;10473;42.734;24.258;2022-12-29T08:00:25;10.83;;;6.47;;
20627;SDS011;10473;42.734;24.258;2022-12-29T08:02:53;11.47;;;7.20;;
20627;SDS011;10473;42.734;24.258;2022-12-29T08:05:21;13.53;;;7.37;;
20627;SDS011;10473;42.734;24.258;2022-12-29T08:07:48;12.07;;;8.10;;
20627;SDS011;10473;42.734;24.258;2022-12-29T08:10:16;7.97;;;6.13;;
20627;SDS011;10473;42.734;24.258;2022-12-29T08:12:45;8.07;;;6.87;;
20627;SDS011;10473;42.734;24.258;2022-12-29T08:15:13;15.33;;;8.67;;
20627;SDS011;10473;42.734;24.258;2022-12-29T08:17:41;13.87;;;9.33;;
20627;SDS011;10473;42.734;24.258;2022-12-29T08:20:09;4.57;;;3.83;;
20627;SDS011;10473;42.734;24.258;2022-12-29T08:22:37;40.03;;;23.57;;
20627;SDS011;10473;42.734;24.258;2022-12-29T08:25:05;10.77;;;8.53;;
20627;SDS011;10473;42.734;24.258;2022-12-29T08:27:33;6.97;;;5.33;;
20627;SDS011;10473;42.734;24.258;2022-12-29T08:30:02;6.67;;;3.90;;
20627;SDS011;10473;42.734;24.258;2022-12-29T08:32:30;3.87;;;2.90;;
20627;SDS011;10473;42.734;24.258;2022-12-29T08:34:59;3.30;;;2.77;;
20627;SDS011;10473;42.734;24.258;2022-12-29T08:37:27;3.67;;;2.70;;
20627;SDS011;10473;42.734;24.258;2022-12-29T08:39:55;3.30;;;3.00;;
20627;SDS011;10473;42.734;24.258;2022-12-29T08:42:23;3.97;;;2.93;;
20627;SDS011;10473;42.734;24.258;2022-12-29T08:44:56;2.90;;;2.50;;
20627;SDS011;10473;42.734;24.258;2022-12-29T08:47:25;2.43;;;1.97;;
20627;SDS011;10473;42.734;24.258;2022-12-29T08:49:53;3.63;;;3.07;;
20627;SDS011;10473;42.734;24.258;2022-12-29T08:52:21;3.83;;;3.03;;
20627;SDS011;10473;42.734;24.258;2022-12-29T08:54:49;3.33;;;2.03;;
20627;SDS011;10473;42.734;24.258;2022-12-29T08:57:17;2.60;;;2.40;;
20627;SDS011;10473;42.734;24.258;2022-12-29T08:59:57;3.70;;;2.57;;
20627;SDS011;10473;42.734;24.258;2022-12-29T09:02:26;4.60;;;3.37;;
20627;SDS011;10473;42.734;24.258;2022-12-29T09:04:53;4.07;;;2.87;;
20627;SDS011;10473;42.734;24.258;2022-12-29T09:07:23;6.23;;;4.30;;
20627;SDS011;10473;42.734;24.258;2022-12-29T09:09:50;6.73;;;4.30;;
20627;SDS011;10473;42.734;24.258;2022-12-29T09:12:18;5.83;;;4.23;;
20627;SDS011;10473;42.734;24.258;2022-12-29T09:14:46;6.50;;;4.87;;
20627;SDS011;10473;42.734;24.258;2022-12-29T09:17:14;6.63;;;4.17;;
20627;SDS011;10473;42.734;24.258;2022-12-29T09:20:00;4.97;;;3.97;;
20627;SDS011;10473;42.734;24.258;2022-12-29T09:22:27;3.03;;;2.77;;
20627;SDS011;10473;42.734;24.258;2022-12-29T09:24:55;3.10;;;2.80;;
20627;SDS011;10473;42.734;24.258;2022-12-29T09:27:23;3.43;;;2.73;;
20627;SDS011;10473;42.734;24.258;2022-12-29T09:29:50;3.23;;;2.40;;
20627;SDS011;10473;42.734;24.258;2022-12-29T09:32:18;5.17;;;3.53;;
20627;SDS011;10473;42.734;24.258;2022-12-29T09:34:46;2.83;;;2.23;;
20627;SDS011;10473;42.734;24.258;2022-12-29T09:37:15;3.27;;;2.30;;
20627;SDS011;10473;42.734;24.258;2022-12-29T09:39:43;3.33;;;2.53;;
20627;SDS011;10473;42.734;24.258;2022-12-29T09:42:12;3.63;;;2.60;;
20627;SDS011;10473;42.734;24.258;2022-12-29T09:44:50;2.73;;;2.33;;
20627;SDS011;10473;42.734;24.258;2022-12-29T09:47:25;2.87;;;2.50;;
20627;SDS011;10473;42.734;24.258;2022-12-29T09:49:56;4.00;;;2.60;;
20627;SDS011;10473;42.734;24.258;2022-12-29T09:52:30;3.20;;;2.47;;
20627;SDS011;10473;42.734;24.258;2022-12-29T09:55:02;4.90;;;3.13;;
20627;SDS011;10473;42.734;24.258;2022-12-29T09:57:32;3.23;;;2.37;;
20627;SDS011;10473;42.734;24.258;2022-12-29T10:00:06;2.97;;;2.30;;
20627;SDS011;10473;42.734;24.258;2022-12-29T10:02:39;3.00;;;2.50;;
20627;SDS011;10473;42.734;24.258;2022-12-29T10:05:18;3.77;;;3.07;;
20627;SDS011;10473;42.734;24.258;2022-12-29T10:07:58;4.80;;;3.13;;
20627;SDS011;10473;42.734;24.258;2022-12-29T10:10:38;3.33;;;2.80;;
20627;SDS011;10473;42.734;24.258;2022-12-29T10:13:16;3.33;;;2.37;;
20627;SDS011;10473;42.734;24.258;2022-12-29T10:15:57;4.83;;;2.20;;
20627;SDS011;10473;42.734;24.258;2022-12-29T10:18:39;5.87;;;3.60;;
20627;SDS011;10473;42.734;24.258;2022-12-29T10:21:22;3.23;;;2.40;;
20627;SDS011;10473;42.734;24.258;2022-12-29T10:24:02;2.70;;;2.40;;
20627;SDS011;10473;42.734;24.258;2022-12-29T10:26:36;4.03;;;2.90;;
20627;SDS011;10473;42.734;24.258;2022-12-29T10:29:08;5.17;;;3.80;;
20627;SDS011;10473;42.734;24.258;2022-12-29T10:31:43;3.83;;;2.90;;
20627;SDS011;10473;42.734;24.258;2022-12-29T10:34:15;7.40;;;5.60;;
20627;SDS011;10473;42.734;24.258;2022-12-29T10:36:49;21.27;;;15.23;;
20627;SDS011;10473;42.734;24.258;2022-12-29T10:39:25;5.57;;;4.13;;
20627;SDS011;10473;42.734;24.258;2022-12-29T10:42:00;5.70;;;3.93;;
20627;SDS011;10473;42.734;24.258;2022-12-29T10:44:36;6.87;;;4.87;;
20627;SDS011;10473;42.734;24.258;2022-12-29T10:47:07;20.57;;;10.63;;
20627;SDS011;10473;42.734;24.258;2022-12-29T10:49:41;12.60;;;7.50;;
20627;SDS011;10473;42.734;24.258;2022-12-29T10:52:09;7.27;;;4.90;;
20627;SDS011;10473;42.734;24.258;2022-12-29T10:54:42;5.30;;;3.30;;
20627;SDS011;10473;42.734;24.258;2022-12-29T10:57:18;4.13;;;3.17;;
20627;SDS011;10473;42.734;24.258;2022-12-29T10:59:53;4.47;;;3.50;;
20627;SDS011;10473;42.734;24.258;2022-12-29T11:05:26;7.37;;;5.60;;
20627;SDS011;10473;42.734;24.258;2022-12-29T11:08:03;3.93;;;3.03;;
20627;SDS011;10473;42.734;24.258;2022-12-29T11:10:38;5.00;;;3.60;;
20627;SDS011;10473;42.734;24.258;2022-12-29T11:13:12;4.27;;;3.33;;
20627;SDS011;10473;42.734;24.258;2022-12-29T11:15:41;5.70;;;4.57;;
20627;SDS011;10473;42.734;24.258;2022-12-29T11:18:18;7.33;;;5.77;;
20627;SDS011;10473;42.734;24.258;2022-12-29T11:20:47;5.67;;;4.50;;
20627;SDS011;10473;42.734;24.258;2022-12-29T11:23:24;5.00;;;3.30;;
20627;SDS011;10473;42.734;24.258;2022-12-29T11:26:07;4.00;;;3.27;;
20627;SDS011;10473;42.734;24.258;2022-12-29T11:28:43;7.40;;;5.23;;
20627;SDS011;10473;42.734;24.258;2022-12-29T11:31:15;4.95;;;4.32;;
20627;SDS011;10473;42.734;24.258;2022-12-29T11:33:44;4.83;;;3.13;;
20627;SDS011;10473;42.734;24.258;2022-12-29T11:36:12;7.13;;;5.30;;
20627;SDS011;10473;42.734;24.258;2022-12-29T11:38:42;5.93;;;4.53;;
20627;SDS011;10473;42.734;24.258;2022-12-29T11:41:20;6.18;;;4.93;;
20627;SDS011;10473;42.734;24.258;2022-12-29T11:43:50;5.35;;;4.20;;
20627;SDS011;10473;42.734;24.258;2022-12-29T11:46:24;3.92;;;3.47;;
20627;SDS011;10473;42.734;24.258;2022-12-29T11:48:54;3.58;;;3.25;;
20627;SDS011;10473;42.734;24.258;2022-12-29T11:51:26;6.70;;;4.22;;
20627;SDS011;10473;42.734;24.258;2022-12-29T11:53:56;6.07;;;4.18;;
20627;SDS011;10473;42.734;24.258;2022-12-29T11:56:34;9.98;;;6.10;;
20627;SDS011;10473;42.734;24.258;2022-12-29T12:02:11;4.72;;;4.10;;
20627;SDS011;10473;42.734;24.258;2022-12-29T12:04:54;3.13;;;2.78;;
20627;SDS011;10473;42.734;24.258;2022-12-29T12:07:31;4.68;;;2.97;;
20627;SDS011;10473;42.734;24.258;2022-12-29T12:10:06;4.15;;;3.33;;
20627;SDS011;10473;42.734;24.258;2022-12-29T12:12:45;6.00;;;3.22;;
20627;SDS011;10473;42.734;24.258;2022-12-29T12:15:17;5.05;;;4.13;;
20627;SDS011;10473;42.734;24.258;2022-12-29T12:17:55;3.50;;;2.92;;
20627;SDS011;10473;42.734;24.258;2022-12-29T12:20:34;5.45;;;3.97;;
20627;SDS011;10473;42.734;24.258;2022-12-29T12:23:12;4.97;;;4.10;;
20627;SDS011;10473;42.734;24.258;2022-12-29T12:25:49;3.55;;;3.20;;
20627;SDS011;10473;42.734;24.258;2022-12-29T12:28:26;5.93;;;4.10;;
20627;SDS011;10473;42.734;24.258;2022-12-29T12:31:01;6.18;;;3.50;;
20627;SDS011;10473;42.734;24.258;2022-12-29T12:33:33;6.63;;;3.97;;
20627;SDS011;10473;42.734;24.258;2022-12-29T12:36:24;9.02;;;6.38;;
20627;SDS011;10473;42.734;24.258;2022-12-29T12:39:06;13.52;;;9.10;;
20627;SDS011;10473;42.734;24.258;2022-12-29T12:41:41;7.07;;;5.85;;
20627;SDS011;10473;42.734;24.258;2022-12-29T12:44:20;7.67;;;6.77;;
20627;SDS011;10473;42.734;24.258;2022-12-29T12:56:24;7.20;;;4.93;;
20627;SDS011;10473;42.734;24.258;2022-12-29T12:59:03;5.17;;;3.83;;
20627;SDS011;10473;42.734;24.258;2022-12-29T13:01:42;3.57;;;2.50;;
20627;SDS011;10473;42.734;24.258;2022-12-29T13:04:32;4.53;;;3.73;;
20627;SDS011;10473;42.734;24.258;2022-12-29T13:07:13;5.27;;;3.70;;
20627;SDS011;10473;42.734;24.258;2022-12-29T13:10:00;3.77;;;3.00;;
20627;SDS011;10473;42.734;24.258;2022-12-29T13:12:41;3.23;;;2.43;;
20627;SDS011;10473;42.734;24.258;2022-12-29T13:15:19;4.60;;;3.50;;
20627;SDS011;10473;42.734;24.258;2022-12-29T13:18:01;8.27;;;6.07;;
20627;SDS011;10473;42.734;24.258;2022-12-29T13:20:33;5.50;;;4.83;;
20627;SDS011;10473;42.734;24.258;2022-12-29T13:23:10;4.57;;;4.03;;
20627;SDS011;10473;42.734;24.258;2022-12-29T13:25:45;3.93;;;3.37;;
20627;SDS011;10473;42.734;24.258;2022-12-29T13:28:19;2.80;;;2.50;;
20627;SDS011;10473;42.734;24.258;2022-12-29T13:30:56;3.87;;;2.37;;
20627;SDS011;10473;42.734;24.258;2022-12-29T13:33:32;3.90;;;3.03;;
20627;SDS011;10473;42.734;24.258;2022-12-29T13:36:11;3.10;;;2.80;;
20627;SDS011;10473;42.734;24.258;2022-12-29T13:38:51;2.83;;;2.10;;
20627;SDS011;10473;42.734;24.258;2022-12-29T13:41:29;3.80;;;2.73;;
20627;SDS011;10473;42.734;24.258;2022-12-29T13:44:01;5.17;;;3.47;;
20627;SDS011;10473;42.734;24.258;2022-12-29T13:46:33;6.17;;;3.60;;
20627;SDS011;10473;42.734;24.258;2022-12-29T13:49:08;3.10;;;2.33;;
20627;SDS011;10473;42.734;24.258;2022-12-29T13:51:41;7.80;;;4.23;;
20627;SDS011;10473;42.734;24.258;2022-12-29T13:54:17;4.20;;;3.67;;
20627;SDS011;10473;42.734;24.258;2022-12-29T13:56:59;4.07;;;3.67;;
20627;SDS011;10473;42.734;24.258;2022-12-29T13:59:36;6.80;;;5.43;;
20627;SDS011;10473;42.734;24.258;2022-12-29T14:02:13;5.87;;;4.37;;
20627;SDS011;10473;42.734;24.258;2022-12-29T14:04:57;8.43;;;4.73;;
20627;SDS011;10473;42.734;24.258;2022-12-29T14:07:26;7.03;;;5.23;;
20627;SDS011;10473;42.734;24.258;2022-12-29T14:09:55;7.93;;;5.87;;
20627;SDS011;10473;42.734;24.258;2022-12-29T14:12:27;5.87;;;4.20;;
20627;SDS011;10473;42.734;24.258;2022-12-29T14:15:05;4.67;;;3.60;;
20627;SDS011;10473;42.734;24.258;2022-12-29T14:17:42;4.37;;;3.20;;
20627;SDS011;10473;42.734;24.258;2022-12-29T14:20:18;7.17;;;4.63;;
20627;SDS011;10473;42.734;24.258;2022-12-29T14:22:58;6.33;;;4.43;;
20627;SDS011;10473;42.734;24.258;2022-12-29T14:28:27;40.47;;;20.47;;
20627;SDS011;10473;42.734;24.258;2022-12-29T14:30:56;67.13;;;30.40;;
20627;SDS011;10473;42.734;24.258;2022-12-29T14:33:28;46.97;;;20.97;;
20627;SDS011;10473;42.734;24.258;2022-12-29T14:36:18;19.33;;;10.77;;
20627;SDS011;10473;42.734;24.258;2022-12-29T14:38:47;15.13;;;7.63;;
20627;SDS011;10473;42.734;24.258;2022-12-29T14:41:16;10.13;;;5.70;;
20627;SDS011;10473;42.734;24.258;2022-12-29T14:43:57;9.17;;;6.23;;
20627;SDS011;10473;42.734;24.258;2022-12-29T14:46:54;13.20;;;8.63;;
20627;SDS011;10473;42.734;24.258;2022-12-29T14:49:25;9.00;;;6.70;;
20627;SDS011;10473;42.734;24.258;2022-12-29T14:52:06;6.73;;;5.17;;
20627;SDS011;10473;42.734;24.258;2022-12-29T14:54:41;4.37;;;3.60;;
20627;SDS011;10473;42.734;24.258;2022-12-29T14:57:14;7.07;;;4.57;;
20627;SDS011;10473;42.734;24.258;2022-12-29T14:59:52;8.93;;;5.00;;
20627;SDS011;10473;42.734;24.258;2022-12-29T15:02:24;6.57;;;4.47;;
20627;SDS011;10473;42.734;24.258;2022-12-29T15:04:54;6.03;;;4.20;;
20627;SDS011;10473;42.734;24.258;2022-12-29T15:07:29;5.73;;;3.67;;
20627;SDS011;10473;42.734;24.258;2022-12-29T15:10:00;6.77;;;4.97;;
20627;SDS011;10473;42.734;24.258;2022-12-29T15:12:34;6.23;;;4.93;;
20627;SDS011;10473;42.734;24.258;2022-12-29T15:15:18;5.43;;;4.90;;
20627;SDS011;10473;42.734;24.258;2022-12-29T15:17:49;9.37;;;6.00;;
20627;SDS011;10473;42.734;24.258;2022-12-29T15:20:20;5.23;;;4.67;;
20627;SDS011;10473;42.734;24.258;2022-12-29T15:22:54;7.00;;;4.20;;
20627;SDS011;10473;42.734;24.258;2022-12-29T15:25:23;6.80;;;5.33;;
20627;SDS011;10473;42.734;24.258;2022-12-29T15:27:52;6.00;;;4.53;;
20627;SDS011;10473;42.734;24.258;2022-12-29T15:30:24;6.57;;;4.43;;
20627;SDS011;10473;42.734;24.258;2022-12-29T15:32:51;6.13;;;4.53;;